Terminal Aerodrome Forecast
Issued by NWS Wilmington, NC

Home | Current Version | Previous Version | Text Only | Print | Product List | Glossary On
Versions: 1 2 3 4 5 6 7 8 9 10 11 12 13 14 15 16 17
000
FTUS42 KILM 311730
TAFFLO
TAF
KFLO 311730Z 3118/0118 07006KT P6SM VCSH BKN025 BKN035
     FM312200 VRB03KT P6SM SCT025 BKN050
     FM010700 00000KT 5SM BR SCT015
     FM010800 00000KT 2SM BR SCT004
      TEMPO 0109/0112 1/2SM FG BKN003
     FM011300 02004KT P6SM BKN060=

USA.gov is the U.S. government's official web portal to all federal, state and local government web resources and services.